Iroquois Falls, Canada
Current Conditions -  °F | °C
As of 3:00 PM on Thursday 29 Jan 2015 (Local Time) from CYTS Reporting Station
Light Snow Light Snow  
Wind Chill: 16°   Ceiling: 1000
Heat Index: 23°   Visibility: 2mi
Dew Point: 21°   Wind: 6mph
Humidity: 93%   Direction: 280°W
Pressure: 29.69"   Gusts: NA
Location:  48.77°N, 80.67°W
Report Text: CYTS 292000Z 28005KT 2SM -SN FEW006 BKN010 OVC020 M05/M06 A2969 RMK SF2SC5SC1 SLP072
Loading
Personal Weather Stations






























Interactive Weather Map New forecast layout! Learn more

10-Day Weather Forecast

Advertisements
Track Severe Weather on mobile